KPRC/PRC METAR and TAF weather

Enter ICAO airport designator
Station Type Date Time Source
KPRC METAR 2021/09/16 09:53 UTC NOAA

KPRC 160953Z AUTO 19006KT 10SM CLR 16/02 A3006 RMK AO2 SLP094 T01560017


Station Type Date Time Source
KPRC Decoded METAR 2021/09/16 09:53 UTC NOAA

PRESCOTT LOVE FIELD, AZ, United States (KPRC) 34-39N 112-25W 1524M
Sep 16, 2021 - 05:53 AM EDT / 2021.09.16 0953 UTC
Wind: from the S (190 degrees) at 7 MPH (6 KT):0
Visibility: 10 mile(s):0
Sky conditions: clear
Temperature: 60.1 F (15.6 C)
Dew Point: 35.1 F (1.7 C)
Relative Humidity: 38%
Pressure (altimeter): 30.06 in. Hg (1017 hPa)
ob: KPRC 160953Z AUTO 19006KT 10SM CLR 16/02 A3006 RMK AO2 SLP094 T01560017
cycle: 10

Station Type Date Time Source
KPRC TAF 2021/09/16 06:27 UTC NOAA

TAF KPRC 160524Z 1606/1706 19006KT P6SM SKC
FM161800 22011G18KT P6SM SKC
FM170200 21007KT P6SM SKC

Example: see airport list